Historyczne dane pomiarowe

Dodano dane terminowe – wersja testowa.

Dane z okresu 1951-2019

Wersja bazy: 1.34 [2019-03-16, lista zmian], aktualizacja planowana na 2019-04-15

Dane meteo z obszaru Polski uzyskane na podstawie danych udostępnionych przez Instytut Meteorologii i Gospodarki Wodnej – Państwowy Instytut Badawczy.

 

Wybierz Datę:    

       

TemperaturaWilgotnośćWiatrCiśnienieOpadyŚniegCzas trwania zjawisk
 Stacja t tx tn tng RH VA  wxwx mslp ppp RRR   cm mm wxwxwxwxwxwxwx
1961-08-14 13.8 20.1 6.8--- 5.0 0.7---- 0.0------------
1961-08-13 13.3 19.0 11.9--- 8.0 4.7---- 12.2------------
1961-08-12 19.3 25.3 14.1--- 5.0 3.3---- 37.9------------
1961-08-11 26.7 32.8 19.7--- 2.7 5.7---- 5.1------------
1961-08-10 25.7 31.5 16.8--- 0.7 3.0---- 0.0------------
1961-08-09 22.9 29.8 14.6--- 2.3 0.0---- 1.5------------
1961-08-08 23.1 27.0 17.1--- 1.7 1.0---- 0.0------------
1961-08-07 24.6 28.8 17.5--- 1.7 7.0---- 0.0------------
1961-08-06 22.6 27.7 13.6--- 1.3 6.0---- 0.0------------
1961-08-05 18.4 23.9 13.3--- 5.3 1.0---- 0.0------------
1961-08-04 17.2 20.8 13.1--- 1.7 0.7---- 0.0------------
1961-08-03 17.3 23.9 10.6--- 5.3 1.3---- 4.3------------
1961-08-02 17.8 24.9 9.0--- 0.7 3.7---- 0.0------------
1961-08-01 17.5 21.4 11.1--- 4.0 3.3---- 0.0------------
1961-07-31 14.1 18.9 10.5--- 6.0 4.0---- 2.6------------
1961-07-30 11.4 12.7 10.6--- 8.0 6.0---- 16.2------------
1961-07-29 13.5 20.7 12.4--- 8.0 3.0---- 37.9------------
1961-07-28 21.9 28.6 16.5--- 3.3 5.7---- 0.0------------
1961-07-27 20.6 25.8 13.1--- 4.0 4.3---- 0.1------------
1961-07-26 15.3 21.5 9.5--- 3.7 1.3---- 0.0------------
1961-07-25 13.0 18.1 11.1--- 6.3 3.0---- 0.0------------
1961-07-24 17.1 19.2 12.6--- 6.0 3.7---- 0.0------------
1961-07-23 18.0 21.6 9.5--- 3.7 1.0---- 0.0------------
1961-07-22 14.8 19.4 12.4--- 5.0 4.0---- 0.0------------
1961-07-21 15.2 20.2 9.0--- 4.7 4.7---- 4.8------------
1961-07-20 14.4 18.0 7.0--- 7.0 3.3---- 29.7------------
1961-07-19 15.1 20.9 7.6--- 5.3 0.3---- 0.0------------
1961-07-18 16.8 20.4 9.4--- 1.3 1.3---- 0.0------------
1961-07-17 16.3 22.4 13.6--- 4.3 1.0---- 0.5------------
1961-07-16 19.5 23.9 13.3--- 5.0 3.7---- 1.5------------
1961-07-15 18.9 24.4 10.3--- 4.3 4.0---- 0.2------------
1961-07-14 16.2 19.4 11.4--- 4.3 1.0---- 1.5------------
1961-07-13 20.3 28.8 15.8--- 3.7 5.3---- 1.8------------
1961-07-12 21.2 27.5 10.0--- 3.7 6.3---- 0.0------------
1961-07-11 16.2 20.2 5.8--- 2.3 1.7---- 0.0------------
1961-07-10 14.4 20.3 9.4--- 3.7 4.3---- 2.3------------
1961-07-09 15.1 22.6 7.5--- 6.0 2.3---- 0.6------------
1961-07-08 17.8 20.7 10.3--- 0.7 1.0---- 0.0------------
1961-07-07 14.1 18.9 4.4--- 5.0 1.3---- 0.0------------
1961-07-06 12.5 17.3 6.6--- 2.7 4.0---- 0.3------------
1961-07-05 14.8 20.6 12.6--- 6.7 2.3---- 0.4------------
1961-07-04 22.2 30.3 13.6--- 2.7 1.7---- 1.6------------
1961-07-03 21.5 29.8 9.3--- 0.7 0.3---- 0.0------------
1961-07-02 20.1 27.3 10.0--- 0.0 0.3---- 0.0------------
1961-07-01 20.6 25.7 9.0--- 2.3 0.3---- 0.0------------
1961-06-30 19.0 22.3 12.6--- 4.0 1.0---- 0.0------------
1961-06-29 15.4 19.6 5.5--- 3.7 2.3---- 0.0------------
1961-06-28 15.0 25.9 12.8--- 6.7 2.0---- 3.5------------
1961-06-27 25.5 30.8 13.8--- 2.0 4.7---- 21.0------------
1961-06-26 22.0 29.8 14.1--- 1.0 1.7---- 0.0------------
1961-06-25 22.8 28.3 9.0--- 0.3 1.7---- 0.0------------
1961-06-24 20.1 25.8 10.2--- 1.3 2.3---- 0.0------------
1961-06-23 18.5 22.9 13.6--- 7.3 1.3---- 5.9------------
1961-06-22 18.8 24.4 9.4--- 1.7 1.7---- 3.5------------
1961-06-21 18.8 22.9 5.5--- 1.7 0.7---- 0.0------------
1961-06-20 18.0 22.4 14.6--- 2.0 2.7---- 0.0------------
1961-06-19 22.5 28.8 11.6--- 3.0 1.7---- 1.0------------
1961-06-18 18.6 26.8 7.5--- 0.7 1.0---- 0.0------------
1961-06-17 17.6 22.4 5.5--- 0.3 0.7---- 0.0------------
1961-06-16 16.0 19.4 8.5--- 2.3 0.7---- 0.0------------
246.6 ms

 

Źródłem pochodzenia danych jest Instytut Meteorologii i Gospodarki Wodnej – Państwowy Instytut Badawczy. Dane Instytutu Meteorologii i Gospodarki Wodnej – Państwowego Instytutu Badawczego zostały przetworzone.

Dane źródłowe można odnaleźć na stronie https://dane.imgw.pl